sensor_id;sensor_type;location;lat;lon;timestamp;P1;durP1;ratioP1;P2;durP2;ratioP2
16642;SDS011;8435;52.184;5.406;2022-12-01T00:00:42;32.17;;;24.57;;
16642;SDS011;8435;52.184;5.406;2022-12-01T00:03:09;29.80;;;22.40;;
16642;SDS011;8435;52.184;5.406;2022-12-01T00:05:36;29.63;;;22.03;;
16642;SDS011;8435;52.184;5.406;2022-12-01T00:08:04;33.93;;;24.30;;
16642;SDS011;8435;52.184;5.406;2022-12-01T00:10:31;31.57;;;22.87;;
16642;SDS011;8435;52.184;5.406;2022-12-01T00:12:58;30.97;;;22.33;;
16642;SDS011;8435;52.184;5.406;2022-12-01T00:15:27;34.20;;;24.50;;
16642;SDS011;8435;52.184;5.406;2022-12-01T00:17:56;32.13;;;22.73;;
16642;SDS011;8435;52.184;5.406;2022-12-01T00:20:23;31.70;;;22.93;;
16642;SDS011;8435;52.184;5.406;2022-12-01T00:22:50;34.53;;;23.00;;
16642;SDS011;8435;52.184;5.406;2022-12-01T00:25:18;32.60;;;23.07;;
16642;SDS011;8435;52.184;5.406;2022-12-01T00:27:46;34.53;;;23.80;;
16642;SDS011;8435;52.184;5.406;2022-12-01T00:30:17;31.50;;;23.43;;
16642;SDS011;8435;52.184;5.406;2022-12-01T00:32:45;33.47;;;23.10;;
16642;SDS011;8435;52.184;5.406;2022-12-01T00:35:18;29.70;;;22.23;;
16642;SDS011;8435;52.184;5.406;2022-12-01T00:37:45;34.13;;;23.90;;
16642;SDS011;8435;52.184;5.406;2022-12-01T00:40:12;31.43;;;22.83;;
16642;SDS011;8435;52.184;5.406;2022-12-01T00:42:40;33.27;;;22.97;;
16642;SDS011;8435;52.184;5.406;2022-12-01T00:45:07;32.57;;;22.13;;
16642;SDS011;8435;52.184;5.406;2022-12-01T00:47:35;31.43;;;22.57;;
16642;SDS011;8435;52.184;5.406;2022-12-01T00:50:02;28.77;;;21.20;;
16642;SDS011;8435;52.184;5.406;2022-12-01T00:52:29;33.43;;;23.07;;
16642;SDS011;8435;52.184;5.406;2022-12-01T00:54:55;31.87;;;21.90;;
16642;SDS011;8435;52.184;5.406;2022-12-01T00:57:22;27.70;;;21.03;;
16642;SDS011;8435;52.184;5.406;2022-12-01T00:59:50;30.40;;;22.70;;
16642;SDS011;8435;52.184;5.406;2022-12-01T01:02:19;34.10;;;22.67;;
16642;SDS011;8435;52.184;5.406;2022-12-01T01:04:46;31.23;;;22.63;;
16642;SDS011;8435;52.184;5.406;2022-12-01T01:07:13;33.10;;;22.23;;
16642;SDS011;8435;52.184;5.406;2022-12-01T01:09:40;31.23;;;21.73;;
16642;SDS011;8435;52.184;5.406;2022-12-01T01:12:06;33.10;;;21.23;;
16642;SDS011;8435;52.184;5.406;2022-12-01T01:14:33;29.43;;;21.33;;
16642;SDS011;8435;52.184;5.406;2022-12-01T01:17:01;33.57;;;22.37;;
16642;SDS011;8435;52.184;5.406;2022-12-01T01:19:28;30.37;;;22.50;;
16642;SDS011;8435;52.184;5.406;2022-12-01T01:21:55;33.33;;;22.13;;
16642;SDS011;8435;52.184;5.406;2022-12-01T01:24:22;32.23;;;22.20;;
16642;SDS011;8435;52.184;5.406;2022-12-01T01:26:49;30.33;;;22.37;;
16642;SDS011;8435;52.184;5.406;2022-12-01T01:29:19;32.67;;;21.80;;
16642;SDS011;8435;52.184;5.406;2022-12-01T01:31:46;30.37;;;21.67;;
16642;SDS011;8435;52.184;5.406;2022-12-01T01:34:14;30.13;;;21.43;;
16642;SDS011;8435;52.184;5.406;2022-12-01T01:36:41;30.47;;;22.07;;
16642;SDS011;8435;52.184;5.406;2022-12-01T01:39:08;31.80;;;22.63;;
16642;SDS011;8435;52.184;5.406;2022-12-01T01:41:34;32.33;;;22.77;;
16642;SDS011;8435;52.184;5.406;2022-12-01T01:44:02;37.83;;;23.17;;
16642;SDS011;8435;52.184;5.406;2022-12-01T01:46:50;34.43;;;23.10;;
16642;SDS011;8435;52.184;5.406;2022-12-01T01:49:18;34.90;;;23.17;;
16642;SDS011;8435;52.184;5.406;2022-12-01T01:51:46;31.50;;;22.30;;
16642;SDS011;8435;52.184;5.406;2022-12-01T01:54:18;34.10;;;23.13;;
16642;SDS011;8435;52.184;5.406;2022-12-01T01:56:48;32.63;;;22.93;;
16642;SDS011;8435;52.184;5.406;2022-12-01T01:59:19;34.57;;;23.70;;
16642;SDS011;8435;52.184;5.406;2022-12-01T02:01:56;34.90;;;22.87;;
16642;SDS011;8435;52.184;5.406;2022-12-01T02:04:28;34.90;;;23.43;;
16642;SDS011;8435;52.184;5.406;2022-12-01T02:06:55;32.23;;;22.67;;
16642;SDS011;8435;52.184;5.406;2022-12-01T02:09:22;34.73;;;22.60;;
16642;SDS011;8435;52.184;5.406;2022-12-01T02:11:56;31.60;;;22.57;;
16642;SDS011;8435;52.184;5.406;2022-12-01T02:14:38;33.87;;;23.07;;
16642;SDS011;8435;52.184;5.406;2022-12-01T02:17:17;33.60;;;22.33;;
16642;SDS011;8435;52.184;5.406;2022-12-01T02:22:59;33.13;;;22.73;;
16642;SDS011;8435;52.184;5.406;2022-12-01T02:25:44;34.00;;;22.07;;
16642;SDS011;8435;52.184;5.406;2022-12-01T02:28:26;34.10;;;22.47;;
16642;SDS011;8435;52.184;5.406;2022-12-01T02:31:08;32.43;;;21.53;;
16642;SDS011;8435;52.184;5.406;2022-12-01T02:33:47;33.20;;;22.63;;
16642;SDS011;8435;52.184;5.406;2022-12-01T02:36:19;36.17;;;22.73;;
16642;SDS011;8435;52.184;5.406;2022-12-01T02:38:53;35.67;;;22.60;;
16642;SDS011;8435;52.184;5.406;2022-12-01T02:41:23;30.73;;;22.57;;
16642;SDS011;8435;52.184;5.406;2022-12-01T02:43:58;34.93;;;23.50;;
16642;SDS011;8435;52.184;5.406;2022-12-01T02:46:32;33.97;;;22.53;;
16642;SDS011;8435;52.184;5.406;2022-12-01T02:49:03;36.73;;;24.93;;
16642;SDS011;8435;52.184;5.406;2022-12-01T02:51:35;37.13;;;24.80;;
16642;SDS011;8435;52.184;5.406;2022-12-01T02:54:03;36.07;;;24.87;;
16642;SDS011;8435;52.184;5.406;2022-12-01T02:56:31;35.27;;;23.67;;
16642;SDS011;8435;52.184;5.406;2022-12-01T02:58:57;39.80;;;25.37;;
16642;SDS011;8435;52.184;5.406;2022-12-01T03:01:34;39.83;;;25.13;;
16642;SDS011;8435;52.184;5.406;2022-12-01T03:04:12;42.70;;;26.80;;
16642;SDS011;8435;52.184;5.406;2022-12-01T03:06:54;39.00;;;25.20;;
16642;SDS011;8435;52.184;5.406;2022-12-01T03:09:28;41.63;;;25.37;;
16642;SDS011;8435;52.184;5.406;2022-12-01T03:12:09;39.67;;;24.30;;
16642;SDS011;8435;52.184;5.406;2022-12-01T03:14:42;38.00;;;24.53;;
16642;SDS011;8435;52.184;5.406;2022-12-01T03:17:17;36.97;;;24.90;;
16642;SDS011;8435;52.184;5.406;2022-12-01T03:19:52;34.23;;;22.60;;
16642;SDS011;8435;52.184;5.406;2022-12-01T03:22:22;38.17;;;23.93;;
16642;SDS011;8435;52.184;5.406;2022-12-01T03:24:53;36.17;;;24.23;;
16642;SDS011;8435;52.184;5.406;2022-12-01T03:27:23;37.10;;;23.80;;
16642;SDS011;8435;52.184;5.406;2022-12-01T03:29:53;35.70;;;22.67;;
16642;SDS011;8435;52.184;5.406;2022-12-01T03:32:24;37.93;;;22.73;;
16642;SDS011;8435;52.184;5.406;2022-12-01T03:34:55;37.67;;;24.93;;
16642;SDS011;8435;52.184;5.406;2022-12-01T03:37:30;40.00;;;24.80;;
16642;SDS011;8435;52.184;5.406;2022-12-01T03:40:01;36.97;;;24.27;;
16642;SDS011;8435;52.184;5.406;2022-12-01T03:42:31;34.90;;;23.23;;
16642;SDS011;8435;52.184;5.406;2022-12-01T03:45:03;37.20;;;23.50;;
16642;SDS011;8435;52.184;5.406;2022-12-01T03:47:34;39.43;;;24.27;;
16642;SDS011;8435;52.184;5.406;2022-12-01T03:50:03;42.53;;;25.63;;
16642;SDS011;8435;52.184;5.406;2022-12-01T03:52:36;36.77;;;24.33;;
16642;SDS011;8435;52.184;5.406;2022-12-01T03:55:10;39.33;;;24.07;;
16642;SDS011;8435;52.184;5.406;2022-12-01T03:57:43;37.50;;;24.50;;
16642;SDS011;8435;52.184;5.406;2022-12-01T04:00:15;35.33;;;23.50;;
16642;SDS011;8435;52.184;5.406;2022-12-01T04:02:43;39.03;;;24.03;;
16642;SDS011;8435;52.184;5.406;2022-12-01T04:05:24;39.50;;;24.33;;
16642;SDS011;8435;52.184;5.406;2022-12-01T04:07:51;39.90;;;23.93;;
16642;SDS011;8435;52.184;5.406;2022-12-01T04:10:18;35.03;;;23.33;;
16642;SDS011;8435;52.184;5.406;2022-12-01T04:12:45;38.17;;;24.67;;
16642;SDS011;8435;52.184;5.406;2022-12-01T04:15:11;36.53;;;23.77;;
16642;SDS011;8435;52.184;5.406;2022-12-01T04:17:39;39.67;;;22.73;;
16642;SDS011;8435;52.184;5.406;2022-12-01T04:20:10;40.10;;;23.97;;
16642;SDS011;8435;52.184;5.406;2022-12-01T04:22:38;39.13;;;23.27;;
16642;SDS011;8435;52.184;5.406;2022-12-01T04:25:05;38.80;;;24.10;;
16642;SDS011;8435;52.184;5.406;2022-12-01T04:27:33;37.53;;;24.03;;
16642;SDS011;8435;52.184;5.406;2022-12-01T04:30:00;39.50;;;23.33;;
16642;SDS011;8435;52.184;5.406;2022-12-01T04:32:29;37.20;;;24.07;;
16642;SDS011;8435;52.184;5.406;2022-12-01T04:34:55;37.43;;;23.23;;
16642;SDS011;8435;52.184;5.406;2022-12-01T04:37:23;38.03;;;23.77;;
16642;SDS011;8435;52.184;5.406;2022-12-01T04:39:50;38.07;;;23.43;;
16642;SDS011;8435;52.184;5.406;2022-12-01T04:42:17;43.50;;;26.47;;
16642;SDS011;8435;52.184;5.406;2022-12-01T04:44:43;41.13;;;24.73;;
16642;SDS011;8435;52.184;5.406;2022-12-01T04:47:10;40.27;;;25.40;;
16642;SDS011;8435;52.184;5.406;2022-12-01T04:49:37;39.57;;;23.50;;
16642;SDS011;8435;52.184;5.406;2022-12-01T04:52:04;40.93;;;24.23;;
16642;SDS011;8435;52.184;5.406;2022-12-01T04:54:35;44.60;;;25.10;;
16642;SDS011;8435;52.184;5.406;2022-12-01T04:57:02;38.40;;;24.03;;
16642;SDS011;8435;52.184;5.406;2022-12-01T04:59:28;37.57;;;24.67;;
16642;SDS011;8435;52.184;5.406;2022-12-01T05:01:55;41.00;;;25.17;;
16642;SDS011;8435;52.184;5.406;2022-12-01T05:04:22;41.13;;;24.70;;
16642;SDS011;8435;52.184;5.406;2022-12-01T05:06:48;42.97;;;25.80;;
16642;SDS011;8435;52.184;5.406;2022-12-01T05:09:15;40.97;;;24.90;;
16642;SDS011;8435;52.184;5.406;2022-12-01T05:11:48;46.90;;;26.10;;
16642;SDS011;8435;52.184;5.406;2022-12-01T05:14:15;36.50;;;24.07;;
16642;SDS011;8435;52.184;5.406;2022-12-01T05:16:42;38.57;;;23.90;;
16642;SDS011;8435;52.184;5.406;2022-12-01T05:19:08;37.93;;;23.97;;
16642;SDS011;8435;52.184;5.406;2022-12-01T05:21:55;39.33;;;23.70;;
16642;SDS011;8435;52.184;5.406;2022-12-01T05:24:22;38.77;;;23.70;;
16642;SDS011;8435;52.184;5.406;2022-12-01T05:26:50;41.10;;;24.37;;
16642;SDS011;8435;52.184;5.406;2022-12-01T05:29:16;41.23;;;25.33;;
16642;SDS011;8435;52.184;5.406;2022-12-01T05:31:43;42.17;;;25.43;;
16642;SDS011;8435;52.184;5.406;2022-12-01T05:34:10;41.23;;;23.20;;
16642;SDS011;8435;52.184;5.406;2022-12-01T05:36:37;41.83;;;24.57;;
16642;SDS011;8435;52.184;5.406;2022-12-01T05:39:04;39.97;;;23.50;;
16642;SDS011;8435;52.184;5.406;2022-12-01T05:41:31;41.80;;;25.23;;
16642;SDS011;8435;52.184;5.406;2022-12-01T05:43:59;41.37;;;24.30;;
16642;SDS011;8435;52.184;5.406;2022-12-01T05:46:25;49.10;;;26.67;;
16642;SDS011;8435;52.184;5.406;2022-12-01T05:48:52;44.83;;;25.50;;
16642;SDS011;8435;52.184;5.406;2022-12-01T05:51:19;42.87;;;24.87;;
16642;SDS011;8435;52.184;5.406;2022-12-01T05:53:46;41.43;;;24.83;;
16642;SDS011;8435;52.184;5.406;2022-12-01T05:56:13;40.93;;;25.73;;
16642;SDS011;8435;52.184;5.406;2022-12-01T05:58:40;37.90;;;23.43;;
16642;SDS011;8435;52.184;5.406;2022-12-01T06:01:08;43.33;;;25.60;;
16642;SDS011;8435;52.184;5.406;2022-12-01T06:03:35;39.63;;;24.33;;
16642;SDS011;8435;52.184;5.406;2022-12-01T06:06:02;42.27;;;25.30;;
16642;SDS011;8435;52.184;5.406;2022-12-01T06:08:32;39.20;;;25.00;;
16642;SDS011;8435;52.184;5.406;2022-12-01T06:11:01;42.07;;;25.30;;
16642;SDS011;8435;52.184;5.406;2022-12-01T06:13:28;45.20;;;26.03;;
16642;SDS011;8435;52.184;5.406;2022-12-01T06:15:55;43.53;;;25.17;;
16642;SDS011;8435;52.184;5.406;2022-12-01T06:18:25;46.23;;;26.23;;
16642;SDS011;8435;52.184;5.406;2022-12-01T06:20:52;43.47;;;26.53;;
16642;SDS011;8435;52.184;5.406;2022-12-01T06:23:19;46.30;;;26.67;;
16642;SDS011;8435;52.184;5.406;2022-12-01T06:25:45;41.57;;;25.17;;
16642;SDS011;8435;52.184;5.406;2022-12-01T06:28:12;43.97;;;26.00;;
16642;SDS011;8435;52.184;5.406;2022-12-01T06:30:39;41.47;;;25.53;;
16642;SDS011;8435;52.184;5.406;2022-12-01T06:33:06;43.87;;;25.60;;
16642;SDS011;8435;52.184;5.406;2022-12-01T06:35:34;47.33;;;26.40;;
16642;SDS011;8435;52.184;5.406;2022-12-01T06:38:01;42.03;;;25.30;;
16642;SDS011;8435;52.184;5.406;2022-12-01T06:40:28;43.40;;;25.07;;
16642;SDS011;8435;52.184;5.406;2022-12-01T06:42:57;45.13;;;24.90;;
16642;SDS011;8435;52.184;5.406;2022-12-01T06:45:25;43.73;;;25.67;;
16642;SDS011;8435;52.184;5.406;2022-12-01T06:47:52;41.93;;;24.23;;
16642;SDS011;8435;52.184;5.406;2022-12-01T06:50:22;44.40;;;23.90;;
16642;SDS011;8435;52.184;5.406;2022-12-01T06:52:51;40.20;;;24.10;;
16642;SDS011;8435;52.184;5.406;2022-12-01T06:55:17;41.17;;;24.77;;
16642;SDS011;8435;52.184;5.406;2022-12-01T06:57:44;43.83;;;24.77;;
16642;SDS011;8435;52.184;5.406;2022-12-01T07:00:11;49.43;;;25.87;;
16642;SDS011;8435;52.184;5.406;2022-12-01T07:02:39;44.43;;;25.43;;
16642;SDS011;8435;52.184;5.406;2022-12-01T07:05:06;43.13;;;24.93;;
16642;SDS011;8435;52.184;5.406;2022-12-01T07:07:34;46.53;;;25.10;;
16642;SDS011;8435;52.184;5.406;2022-12-01T07:10:06;43.63;;;25.10;;
16642;SDS011;8435;52.184;5.406;2022-12-01T07:12:34;44.97;;;26.67;;
16642;SDS011;8435;52.184;5.406;2022-12-01T07:15:01;46.10;;;25.57;;
16642;SDS011;8435;52.184;5.406;2022-12-01T07:17:28;49.60;;;27.13;;
16642;SDS011;8435;52.184;5.406;2022-12-01T07:19:55;45.17;;;26.00;;
16642;SDS011;8435;52.184;5.406;2022-12-01T07:22:22;44.83;;;26.53;;
16642;SDS011;8435;52.184;5.406;2022-12-01T07:24:49;49.63;;;26.73;;
16642;SDS011;8435;52.184;5.406;2022-12-01T07:27:17;45.73;;;26.23;;
16642;SDS011;8435;52.184;5.406;2022-12-01T07:29:43;44.87;;;25.20;;
16642;SDS011;8435;52.184;5.406;2022-12-01T07:32:10;42.07;;;25.17;;
16642;SDS011;8435;52.184;5.406;2022-12-01T07:34:37;44.00;;;25.13;;
16642;SDS011;8435;52.184;5.406;2022-12-01T07:37:04;43.90;;;25.67;;
16642;SDS011;8435;52.184;5.406;2022-12-01T07:39:30;43.40;;;25.60;;
16642;SDS011;8435;52.184;5.406;2022-12-01T07:41:57;42.67;;;26.03;;
16642;SDS011;8435;52.184;5.406;2022-12-01T07:44:25;43.20;;;24.70;;
16642;SDS011;8435;52.184;5.406;2022-12-01T07:46:52;38.63;;;23.73;;
16642;SDS011;8435;52.184;5.406;2022-12-01T07:49:19;41.73;;;23.33;;
16642;SDS011;8435;52.184;5.406;2022-12-01T07:51:46;44.50;;;24.30;;
16642;SDS011;8435;52.184;5.406;2022-12-01T07:54:13;41.23;;;23.93;;
16642;SDS011;8435;52.184;5.406;2022-12-01T07:56:41;44.43;;;25.77;;
16642;SDS011;8435;52.184;5.406;2022-12-01T07:59:07;45.17;;;26.57;;
16642;SDS011;8435;52.184;5.406;2022-12-01T08:01:37;42.50;;;24.67;;
16642;SDS011;8435;52.184;5.406;2022-12-01T08:04:04;43.73;;;25.77;;
16642;SDS011;8435;52.184;5.406;2022-12-01T08:06:30;42.33;;;25.33;;
16642;SDS011;8435;52.184;5.406;2022-12-01T08:08:57;43.27;;;26.17;;
16642;SDS011;8435;52.184;5.406;2022-12-01T08:11:25;42.53;;;26.07;;
16642;SDS011;8435;52.184;5.406;2022-12-01T08:13:53;43.70;;;24.60;;
16642;SDS011;8435;52.184;5.406;2022-12-01T08:16:21;47.00;;;27.40;;
16642;SDS011;8435;52.184;5.406;2022-12-01T08:18:50;47.90;;;27.50;;
16642;SDS011;8435;52.184;5.406;2022-12-01T08:21:20;45.90;;;26.47;;
16642;SDS011;8435;52.184;5.406;2022-12-01T08:23:50;43.63;;;25.73;;
16642;SDS011;8435;52.184;5.406;2022-12-01T08:26:19;45.70;;;27.67;;
16642;SDS011;8435;52.184;5.406;2022-12-01T08:28:46;44.00;;;26.83;;
16642;SDS011;8435;52.184;5.406;2022-12-01T08:31:14;43.30;;;26.63;;
16642;SDS011;8435;52.184;5.406;2022-12-01T08:33:43;42.40;;;27.33;;
16642;SDS011;8435;52.184;5.406;2022-12-01T08:36:11;44.70;;;27.57;;
16642;SDS011;8435;52.184;5.406;2022-12-01T08:38:41;46.20;;;26.70;;
16642;SDS011;8435;52.184;5.406;2022-12-01T08:41:08;45.43;;;27.13;;
16642;SDS011;8435;52.184;5.406;2022-12-01T08:43:35;44.03;;;27.37;;
16642;SDS011;8435;52.184;5.406;2022-12-01T08:46:04;47.90;;;27.27;;
16642;SDS011;8435;52.184;5.406;2022-12-01T08:48:32;45.77;;;28.50;;
16642;SDS011;8435;52.184;5.406;2022-12-01T08:51:00;45.50;;;27.23;;
16642;SDS011;8435;52.184;5.406;2022-12-01T08:53:30;47.03;;;27.60;;
16642;SDS011;8435;52.184;5.406;2022-12-01T08:55:58;48.00;;;28.43;;
16642;SDS011;8435;52.184;5.406;2022-12-01T08:58:26;45.87;;;28.50;;
16642;SDS011;8435;52.184;5.406;2022-12-01T09:00:59;43.67;;;27.37;;
16642;SDS011;8435;52.184;5.406;2022-12-01T09:03:26;45.60;;;26.20;;
16642;SDS011;8435;52.184;5.406;2022-12-01T09:05:53;46.87;;;27.73;;
16642;SDS011;8435;52.184;5.406;2022-12-01T09:08:19;49.17;;;28.13;;
16642;SDS011;8435;52.184;5.406;2022-12-01T09:11:01;42.77;;;26.43;;
16642;SDS011;8435;52.184;5.406;2022-12-01T09:13:33;43.63;;;27.10;;
16642;SDS011;8435;52.184;5.406;2022-12-01T09:16:02;49.33;;;28.97;;
16642;SDS011;8435;52.184;5.406;2022-12-01T09:18:30;44.30;;;27.27;;
16642;SDS011;8435;52.184;5.406;2022-12-01T09:20:57;46.80;;;29.00;;
16642;SDS011;8435;52.184;5.406;2022-12-01T09:23:25;47.40;;;27.80;;
16642;SDS011;8435;52.184;5.406;2022-12-01T09:25:52;48.43;;;28.47;;
16642;SDS011;8435;52.184;5.406;2022-12-01T09:28:20;49.57;;;28.33;;
16642;SDS011;8435;52.184;5.406;2022-12-01T09:30:47;45.33;;;27.77;;
16642;SDS011;8435;52.184;5.406;2022-12-01T09:33:14;47.50;;;27.57;;
16642;SDS011;8435;52.184;5.406;2022-12-01T09:35:41;43.87;;;27.83;;
16642;SDS011;8435;52.184;5.406;2022-12-01T09:38:08;46.00;;;29.20;;
16642;SDS011;8435;52.184;5.406;2022-12-01T09:40:35;48.90;;;30.77;;
16642;SDS011;8435;52.184;5.406;2022-12-01T09:43:04;48.27;;;29.07;;
16642;SDS011;8435;52.184;5.406;2022-12-01T09:45:39;47.97;;;29.27;;
16642;SDS011;8435;52.184;5.406;2022-12-01T09:48:12;48.00;;;28.27;;
16642;SDS011;8435;52.184;5.406;2022-12-01T09:50:48;48.57;;;29.70;;
16642;SDS011;8435;52.184;5.406;2022-12-01T09:53:16;49.90;;;30.63;;
16642;SDS011;8435;52.184;5.406;2022-12-01T09:55:46;46.30;;;28.07;;
16642;SDS011;8435;52.184;5.406;2022-12-01T09:58:15;45.97;;;29.83;;
16642;SDS011;8435;52.184;5.406;2022-12-01T10:00:46;50.67;;;30.50;;
16642;SDS011;8435;52.184;5.406;2022-12-01T10:03:16;48.43;;;30.87;;
16642;SDS011;8435;52.184;5.406;2022-12-01T10:05:53;49.17;;;30.27;;
16642;SDS011;8435;52.184;5.406;2022-12-01T10:08:23;47.30;;;30.57;;
16642;SDS011;8435;52.184;5.406;2022-12-01T10:10:54;54.00;;;33.23;;
16642;SDS011;8435;52.184;5.406;2022-12-01T10:13:26;52.80;;;32.20;;
16642;SDS011;8435;52.184;5.406;2022-12-01T10:15:57;53.30;;;33.83;;
16642;SDS011;8435;52.184;5.406;2022-12-01T10:18:33;49.77;;;30.53;;
16642;SDS011;8435;52.184;5.406;2022-12-01T10:21:14;51.63;;;30.47;;
16642;SDS011;8435;52.184;5.406;2022-12-01T10:23:56;48.77;;;29.53;;
16642;SDS011;8435;52.184;5.406;2022-12-01T10:26:34;46.97;;;29.90;;
16642;SDS011;8435;52.184;5.406;2022-12-01T10:29:10;49.00;;;29.17;;
16642;SDS011;8435;52.184;5.406;2022-12-01T10:31:43;48.93;;;30.10;;
16642;SDS011;8435;52.184;5.406;2022-12-01T10:34:17;47.27;;;27.73;;
16642;SDS011;8435;52.184;5.406;2022-12-01T10:36:47;47.83;;;30.47;;
16642;SDS011;8435;52.184;5.406;2022-12-01T10:39:15;49.17;;;29.83;;
16642;SDS011;8435;52.184;5.406;2022-12-01T10:41:45;47.60;;;29.47;;
16642;SDS011;8435;52.184;5.406;2022-12-01T10:44:13;53.17;;;31.40;;
16642;SDS011;8435;52.184;5.406;2022-12-01T10:46:44;47.63;;;30.37;;
16642;SDS011;8435;52.184;5.406;2022-12-01T10:49:15;47.63;;;29.43;;
16642;SDS011;8435;52.184;5.406;2022-12-01T10:51:47;47.70;;;30.03;;
16642;SDS011;8435;52.184;5.406;2022-12-01T10:54:16;48.73;;;29.77;;
16642;SDS011;8435;52.184;5.406;2022-12-01T10:56:44;46.30;;;28.33;;
16642;SDS011;8435;52.184;5.406;2022-12-01T11:02:00;47.70;;;29.93;;
16642;SDS011;8435;52.184;5.406;2022-12-01T11:04:36;46.73;;;29.27;;
16642;SDS011;8435;52.184;5.406;2022-12-01T11:07:13;46.60;;;29.03;;
16642;SDS011;8435;52.184;5.406;2022-12-01T11:09:44;45.33;;;29.17;;
16642;SDS011;8435;52.184;5.406;2022-12-01T11:12:13;45.37;;;29.77;;
16642;SDS011;8435;52.184;5.406;2022-12-01T11:14:44;45.57;;;29.30;;
16642;SDS011;8435;52.184;5.406;2022-12-01T11:17:22;45.87;;;29.10;;
16642;SDS011;8435;52.184;5.406;2022-12-01T11:19:52;44.67;;;29.70;;
16642;SDS011;8435;52.184;5.406;2022-12-01T11:22:20;44.80;;;29.20;;
16642;SDS011;8435;52.184;5.406;2022-12-01T11:24:56;45.30;;;30.33;;
16642;SDS011;8435;52.184;5.406;2022-12-01T11:27:28;46.63;;;30.33;;
16642;SDS011;8435;52.184;5.406;2022-12-01T11:30:00;44.30;;;29.70;;
16642;SDS011;8435;52.184;5.406;2022-12-01T11:32:32;46.60;;;30.97;;
16642;SDS011;8435;52.184;5.406;2022-12-01T11:35:03;46.57;;;28.57;;
16642;SDS011;8435;52.184;5.406;2022-12-01T11:37:42;47.67;;;29.73;;
16642;SDS011;8435;52.184;5.406;2022-12-01T11:40:15;44.57;;;29.40;;
16642;SDS011;8435;52.184;5.406;2022-12-01T11:42:52;48.03;;;29.30;;
16642;SDS011;8435;52.184;5.406;2022-12-01T11:45:23;45.10;;;29.43;;
16642;SDS011;8435;52.184;5.406;2022-12-01T11:47:58;42.23;;;28.20;;
16642;SDS011;8435;52.184;5.406;2022-12-01T11:50:28;46.03;;;27.87;;
16642;SDS011;8435;52.184;5.406;2022-12-01T11:52:56;44.20;;;29.13;;
16642;SDS011;8435;52.184;5.406;2022-12-01T11:55:23;46.73;;;29.83;;
16642;SDS011;8435;52.184;5.406;2022-12-01T11:57:52;44.20;;;30.00;;
16642;SDS011;8435;52.184;5.406;2022-12-01T12:00:21;41.17;;;28.37;;
16642;SDS011;8435;52.184;5.406;2022-12-01T12:03:05;41.33;;;27.93;;
16642;SDS011;8435;52.184;5.406;2022-12-01T12:05:45;42.30;;;27.63;;
16642;SDS011;8435;52.184;5.406;2022-12-01T12:08:25;40.40;;;27.97;;
16642;SDS011;8435;52.184;5.406;2022-12-01T12:11:01;39.27;;;26.93;;
16642;SDS011;8435;52.184;5.406;2022-12-01T12:13:41;40.67;;;27.03;;
16642;SDS011;8435;52.184;5.406;2022-12-01T12:16:38;39.83;;;27.37;;
16642;SDS011;8435;52.184;5.406;2022-12-01T12:19:20;42.40;;;27.57;;
16642;SDS011;8435;52.184;5.406;2022-12-01T12:22:00;35.60;;;25.93;;
16642;SDS011;8435;52.184;5.406;2022-12-01T12:24:37;40.53;;;27.43;;
16642;SDS011;8435;52.184;5.406;2022-12-01T12:27:14;39.97;;;28.03;;
16642;SDS011;8435;52.184;5.406;2022-12-01T12:29:55;37.67;;;27.27;;
16642;SDS011;8435;52.184;5.406;2022-12-01T12:32:36;36.57;;;25.47;;
16642;SDS011;8435;52.184;5.406;2022-12-01T12:35:18;38.97;;;26.27;;
16642;SDS011;8435;52.184;5.406;2022-12-01T12:37:58;37.17;;;26.63;;
16642;SDS011;8435;52.184;5.406;2022-12-01T12:40:45;33.27;;;24.30;;
16642;SDS011;8435;52.184;5.406;2022-12-01T12:43:20;34.33;;;24.67;;
16642;SDS011;8435;52.184;5.406;2022-12-01T12:45:53;32.07;;;24.60;;
16642;SDS011;8435;52.184;5.406;2022-12-01T12:48:32;33.67;;;24.60;;
16642;SDS011;8435;52.184;5.406;2022-12-01T12:51:17;37.97;;;27.10;;
16642;SDS011;8435;52.184;5.406;2022-12-01T12:53:48;39.37;;;27.70;;
16642;SDS011;8435;52.184;5.406;2022-12-01T12:56:19;38.10;;;26.73;;
16642;SDS011;8435;52.184;5.406;2022-12-01T12:58:52;40.03;;;27.53;;
16642;SDS011;8435;52.184;5.406;2022-12-01T13:01:23;35.97;;;25.93;;
16642;SDS011;8435;52.184;5.406;2022-12-01T13:03:54;38.73;;;27.43;;
16642;SDS011;8435;52.184;5.406;2022-12-01T13:06:26;34.90;;;26.13;;
16642;SDS011;8435;52.184;5.406;2022-12-01T13:08:58;40.43;;;27.33;;
16642;SDS011;8435;52.184;5.406;2022-12-01T13:11:31;39.47;;;27.30;;
16642;SDS011;8435;52.184;5.406;2022-12-01T13:14:03;36.43;;;26.53;;
16642;SDS011;8435;52.184;5.406;2022-12-01T13:16:33;36.53;;;25.87;;
16642;SDS011;8435;52.184;5.406;2022-12-01T13:19:02;41.17;;;26.67;;
16642;SDS011;8435;52.184;5.406;2022-12-01T13:21:38;36.57;;;25.37;;
16642;SDS011;8435;52.184;5.406;2022-12-01T13:24:07;35.43;;;25.17;;
16642;SDS011;8435;52.184;5.406;2022-12-01T13:26:37;34.97;;;24.90;;
16642;SDS011;8435;52.184;5.406;2022-12-01T13:29:06;34.47;;;24.83;;
16642;SDS011;8435;52.184;5.406;2022-12-01T13:31:41;37.97;;;26.47;;
16642;SDS011;8435;52.184;5.406;2022-12-01T13:34:17;34.43;;;24.60;;
16642;SDS011;8435;52.184;5.406;2022-12-01T13:36:49;35.80;;;24.83;;
16642;SDS011;8435;52.184;5.406;2022-12-01T13:39:18;36.87;;;26.63;;
16642;SDS011;8435;52.184;5.406;2022-12-01T13:41:54;34.73;;;24.43;;
16642;SDS011;8435;52.184;5.406;2022-12-01T13:44:24;34.70;;;25.27;;
16642;SDS011;8435;52.184;5.406;2022-12-01T13:46:55;37.40;;;25.40;;
16642;SDS011;8435;52.184;5.406;2022-12-01T13:49:38;33.60;;;24.17;;
16642;SDS011;8435;52.184;5.406;2022-12-01T13:54:59;32.47;;;23.83;;
16642;SDS011;8435;52.184;5.406;2022-12-01T13:57:29;34.43;;;25.30;;
16642;SDS011;8435;52.184;5.406;2022-12-01T14:00:05;34.20;;;23.90;;
16642;SDS011;8435;52.184;5.406;2022-12-01T14:03:29;34.43;;;24.23;;
16642;SDS011;8435;52.184;5.406;2022-12-01T14:06:05;32.07;;;23.03;;
16642;SDS011;8435;52.184;5.406;2022-12-01T14:08:45;33.40;;;23.70;;
16642;SDS011;8435;52.184;5.406;2022-12-01T14:11:18;31.53;;;23.63;;
16642;SDS011;8435;52.184;5.406;2022-12-01T14:13:49;33.00;;;23.83;;
16642;SDS011;8435;52.184;5.406;2022-12-01T14:16:18;32.63;;;23.63;;
16642;SDS011;8435;52.184;5.406;2022-12-01T14:18:49;32.53;;;23.10;;
16642;SDS011;8435;52.184;5.406;2022-12-01T14:24:17;33.03;;;24.37;;
16642;SDS011;8435;52.184;5.406;2022-12-01T14:26:47;31.80;;;23.73;;
16642;SDS011;8435;52.184;5.406;2022-12-01T14:29:28;31.83;;;23.17;;
16642;SDS011;8435;52.184;5.406;2022-12-01T14:34:53;36.07;;;24.23;;
16642;SDS011;8435;52.184;5.406;2022-12-01T14:37:25;31.50;;;22.43;;
16642;SDS011;8435;52.184;5.406;2022-12-01T14:40:02;30.70;;;22.60;;
16642;SDS011;8435;52.184;5.406;2022-12-01T14:42:32;32.07;;;23.13;;
16642;SDS011;8435;52.184;5.406;2022-12-01T14:45:21;33.23;;;23.70;;
16642;SDS011;8435;52.184;5.406;2022-12-01T14:47:51;31.07;;;23.80;;
16642;SDS011;8435;52.184;5.406;2022-12-01T14:50:27;32.03;;;22.40;;
16642;SDS011;8435;52.184;5.406;2022-12-01T14:53:00;30.73;;;21.67;;
16642;SDS011;8435;52.184;5.406;2022-12-01T14:55:38;31.30;;;21.70;;
16642;SDS011;8435;52.184;5.406;2022-12-01T14:58:11;31.63;;;21.80;;
16642;SDS011;8435;52.184;5.406;2022-12-01T15:00:47;31.40;;;22.30;;
16642;SDS011;8435;52.184;5.406;2022-12-01T15:03:27;27.60;;;21.20;;
16642;SDS011;8435;52.184;5.406;2022-12-01T15:06:00;31.27;;;22.00;;
16642;SDS011;8435;52.184;5.406;2022-12-01T15:08:28;30.47;;;22.17;;